sensor_id;sensor_type;location;lat;lon;timestamp;P1;durP1;ratioP1;P2;durP2;ratioP2
77821;SDS011;67012;53.712;10.728;2023-07-24T05:52:31;5.88;;;4.22;;
77821;SDS011;67012;53.712;10.728;2023-07-24T05:54:56;6.03;;;5.07;;
77821;SDS011;67012;53.712;10.728;2023-07-24T05:57:22;7.40;;;4.87;;
77821;SDS011;67012;53.712;10.728;2023-07-24T05:59:47;5.57;;;4.67;;
77821;SDS011;67012;53.712;10.728;2023-07-24T06:02:12;5.93;;;4.83;;
77821;SDS011;67012;53.712;10.728;2023-07-24T06:04:37;5.90;;;4.37;;
77821;SDS011;67012;53.712;10.728;2023-07-24T06:07:03;6.13;;;4.73;;
77821;SDS011;67012;53.712;10.728;2023-07-24T06:09:28;6.57;;;4.68;;
77821;SDS011;67012;53.712;10.728;2023-07-24T06:11:53;6.27;;;4.73;;
77821;SDS011;67012;53.712;10.728;2023-07-24T06:14:19;6.03;;;5.03;;
77821;SDS011;67012;53.712;10.728;2023-07-24T06:16:44;6.22;;;4.75;;
77821;SDS011;67012;53.712;10.728;2023-07-24T06:19:09;5.13;;;4.63;;
77821;SDS011;67012;53.712;10.728;2023-07-24T06:21:34;5.23;;;4.57;;
77821;SDS011;67012;53.712;10.728;2023-07-24T06:23:59;5.00;;;4.47;;
77821;SDS011;67012;53.712;10.728;2023-07-24T06:26:25;6.33;;;4.77;;
77821;SDS011;67012;53.712;10.728;2023-07-24T06:28:50;4.97;;;4.40;;
77821;SDS011;67012;53.712;10.728;2023-07-24T06:31:15;5.57;;;4.70;;
77821;SDS011;67012;53.712;10.728;2023-07-24T06:33:40;5.30;;;4.80;;
77821;SDS011;67012;53.712;10.728;2023-07-24T06:36:09;6.57;;;5.17;;
77821;SDS011;67012;53.712;10.728;2023-07-24T06:38:35;7.22;;;5.15;;
77821;SDS011;67012;53.712;10.728;2023-07-24T06:41:00;5.97;;;4.77;;
77821;SDS011;67012;53.712;10.728;2023-07-24T06:43:25;7.50;;;5.50;;
77821;SDS011;67012;53.712;10.728;2023-07-24T06:45:51;6.77;;;4.50;;
77821;SDS011;67012;53.712;10.728;2023-07-24T06:48:16;5.47;;;4.90;;
77821;SDS011;67012;53.712;10.728;2023-07-24T06:50:41;5.93;;;4.67;;
77821;SDS011;67012;53.712;10.728;2023-07-24T06:53:06;6.43;;;5.40;;
77821;SDS011;67012;53.712;10.728;2023-07-24T06:55:31;5.67;;;4.93;;
77821;SDS011;67012;53.712;10.728;2023-07-24T06:57:57;5.03;;;4.50;;
77821;SDS011;67012;53.712;10.728;2023-07-24T07:00:22;5.17;;;4.67;;
77821;SDS011;67012;53.712;10.728;2023-07-24T07:02:47;5.50;;;4.50;;
77821;SDS011;67012;53.712;10.728;2023-07-24T07:05:12;4.83;;;4.40;;
77821;SDS011;67012;53.712;10.728;2023-07-24T07:07:37;4.93;;;4.30;;
77821;SDS011;67012;53.712;10.728;2023-07-24T07:10:04;6.20;;;4.40;;
77821;SDS011;67012;53.712;10.728;2023-07-24T07:12:30;4.00;;;3.58;;
77821;SDS011;67012;53.712;10.728;2023-07-24T07:14:55;4.10;;;3.70;;
77821;SDS011;67012;53.712;10.728;2023-07-24T07:17:20;4.93;;;4.13;;
77821;SDS011;67012;53.712;10.728;2023-07-24T07:19:45;3.83;;;3.30;;
77821;SDS011;67012;53.712;10.728;2023-07-24T07:22:11;3.70;;;3.38;;
77821;SDS011;67012;53.712;10.728;2023-07-24T07:24:36;3.60;;;3.30;;
77821;SDS011;67012;53.712;10.728;2023-07-24T07:27:01;6.07;;;3.67;;
77821;SDS011;67012;53.712;10.728;2023-07-24T07:29:26;7.70;;;3.70;;
77821;SDS011;67012;53.712;10.728;2023-07-24T07:31:52;6.57;;;3.97;;
77821;SDS011;67012;53.712;10.728;2023-07-24T07:34:17;3.53;;;3.23;;
77821;SDS011;67012;53.712;10.728;2023-07-24T07:36:42;3.77;;;3.30;;
77821;SDS011;67012;53.712;10.728;2023-07-24T07:39:07;3.83;;;3.43;;
77821;SDS011;67012;53.712;10.728;2023-07-24T07:41:32;4.50;;;3.70;;
77821;SDS011;67012;53.712;10.728;2023-07-24T07:43:58;4.17;;;3.77;;
77821;SDS011;67012;53.712;10.728;2023-07-24T07:46:23;4.63;;;3.60;;
77821;SDS011;67012;53.712;10.728;2023-07-24T07:48:48;4.13;;;3.40;;
77821;SDS011;67012;53.712;10.728;2023-07-24T07:51:14;3.85;;;3.35;;
77821;SDS011;67012;53.712;10.728;2023-07-24T07:53:39;4.93;;;3.43;;
77821;SDS011;67012;53.712;10.728;2023-07-24T07:56:05;3.85;;;3.30;;
77821;SDS011;67012;53.712;10.728;2023-07-24T07:58:30;4.40;;;3.43;;
77821;SDS011;67012;53.712;10.728;2023-07-24T08:00:55;3.83;;;3.43;;
77821;SDS011;67012;53.712;10.728;2023-07-24T08:03:20;3.80;;;3.40;;
77821;SDS011;67012;53.712;10.728;2023-07-24T08:05:46;3.80;;;3.50;;
77821;SDS011;67012;53.712;10.728;2023-07-24T08:08:11;3.45;;;3.15;;
77821;SDS011;67012;53.712;10.728;2023-07-24T08:10:37;3.80;;;3.40;;
77821;SDS011;67012;53.712;10.728;2023-07-24T08:13:02;5.82;;;3.67;;
77821;SDS011;67012;53.712;10.728;2023-07-24T08:15:28;5.30;;;3.50;;
77821;SDS011;67012;53.712;10.728;2023-07-24T08:17:53;3.63;;;3.07;;
77821;SDS011;67012;53.712;10.728;2023-07-24T08:20:18;3.63;;;3.33;;
77821;SDS011;67012;53.712;10.728;2023-07-24T08:22:43;5.23;;;3.90;;
77821;SDS011;67012;53.712;10.728;2023-07-24T08:25:08;3.67;;;3.37;;
77821;SDS011;67012;53.712;10.728;2023-07-24T08:27:34;4.50;;;3.27;;
77821;SDS011;67012;53.712;10.728;2023-07-24T08:29:59;4.57;;;3.43;;
77821;SDS011;67012;53.712;10.728;2023-07-24T08:32:24;3.83;;;3.43;;
77821;SDS011;67012;53.712;10.728;2023-07-24T08:34:49;3.43;;;3.13;;
77821;SDS011;67012;53.712;10.728;2023-07-24T08:37:14;4.23;;;3.50;;
77821;SDS011;67012;53.712;10.728;2023-07-24T08:39:40;3.57;;;3.27;;
77821;SDS011;67012;53.712;10.728;2023-07-24T08:42:12;3.72;;;3.22;;
77821;SDS011;67012;53.712;10.728;2023-07-24T08:44:37;3.20;;;2.78;;
77821;SDS011;67012;53.712;10.728;2023-07-24T08:47:03;4.03;;;3.50;;
77821;SDS011;67012;53.712;10.728;2023-07-24T08:49:29;5.18;;;3.03;;
77821;SDS011;67012;53.712;10.728;2023-07-24T08:51:54;3.90;;;3.22;;
77821;SDS011;67012;53.712;10.728;2023-07-24T08:54:20;3.40;;;3.10;;
77821;SDS011;67012;53.712;10.728;2023-07-24T08:56:45;3.47;;;3.10;;
77821;SDS011;67012;53.712;10.728;2023-07-24T08:59:14;4.22;;;3.55;;
77821;SDS011;67012;53.712;10.728;2023-07-24T09:01:39;3.30;;;3.00;;
77821;SDS011;67012;53.712;10.728;2023-07-24T09:04:04;3.10;;;2.75;;
77821;SDS011;67012;53.712;10.728;2023-07-24T09:06:30;3.57;;;3.27;;
77821;SDS011;67012;53.712;10.728;2023-07-24T09:08:55;3.63;;;3.15;;
77821;SDS011;67012;53.712;10.728;2023-07-24T09:11:20;3.73;;;3.07;;
77821;SDS011;67012;53.712;10.728;2023-07-24T09:13:45;3.20;;;2.90;;
77821;SDS011;67012;53.712;10.728;2023-07-24T09:16:21;3.70;;;3.13;;
77821;SDS011;67012;53.712;10.728;2023-07-24T09:18:47;3.78;;;3.22;;
77821;SDS011;67012;53.712;10.728;2023-07-24T09:21:12;3.50;;;3.20;;
77821;SDS011;67012;53.712;10.728;2023-07-24T09:23:37;5.83;;;3.07;;
77821;SDS011;67012;53.712;10.728;2023-07-24T09:26:06;3.28;;;2.92;;
77821;SDS011;67012;53.712;10.728;2023-07-24T09:28:32;4.05;;;3.08;;
77821;SDS011;67012;53.712;10.728;2023-07-24T09:30:58;4.75;;;3.42;;
77821;SDS011;67012;53.712;10.728;2023-07-24T09:33:36;3.97;;;3.50;;
77821;SDS011;67012;53.712;10.728;2023-07-24T09:36:03;5.30;;;3.80;;
77821;SDS011;67012;53.712;10.728;2023-07-24T09:38:29;3.90;;;3.55;;
77821;SDS011;67012;53.712;10.728;2023-07-24T09:40:56;4.15;;;3.75;;
77821;SDS011;67012;53.712;10.728;2023-07-24T09:43:23;4.05;;;3.65;;
77821;SDS011;67012;53.712;10.728;2023-07-24T09:50:41;4.50;;;3.38;;
77821;SDS011;67012;53.712;10.728;2023-07-24T09:55:43;3.97;;;3.67;;
77821;SDS011;67012;53.712;10.728;2023-07-24T09:58:11;4.35;;;3.78;;
77821;SDS011;67012;53.712;10.728;2023-07-24T10:00:37;5.15;;;3.90;;
77821;SDS011;67012;53.712;10.728;2023-07-24T10:03:04;6.38;;;4.07;;
77821;SDS011;67012;53.712;10.728;2023-07-24T10:05:30;3.75;;;3.45;;
77821;SDS011;67012;53.712;10.728;2023-07-24T10:07:56;4.10;;;3.80;;
77821;SDS011;67012;53.712;10.728;2023-07-24T10:10:22;5.97;;;3.70;;
77821;SDS011;67012;53.712;10.728;2023-07-24T10:12:48;4.28;;;3.88;;
77821;SDS011;67012;53.712;10.728;2023-07-24T10:15:15;6.15;;;4.13;;
77821;SDS011;67012;53.712;10.728;2023-07-24T10:17:41;4.55;;;4.07;;
77821;SDS011;67012;53.712;10.728;2023-07-24T10:20:08;4.82;;;3.85;;
77821;SDS011;67012;53.712;10.728;2023-07-24T10:22:35;4.13;;;3.72;;
77821;SDS011;67012;53.712;10.728;2023-07-24T10:25:03;4.82;;;4.05;;
77821;SDS011;67012;53.712;10.728;2023-07-24T10:27:29;5.53;;;4.95;;
77821;SDS011;67012;53.712;10.728;2023-07-24T10:30:02;8.52;;;5.88;;
77821;SDS011;67012;53.712;10.728;2023-07-24T10:32:28;5.72;;;5.15;;
77821;SDS011;67012;53.712;10.728;2023-07-24T10:35:07;5.75;;;5.18;;
77821;SDS011;67012;53.712;10.728;2023-07-24T10:37:36;5.82;;;5.22;;
77821;SDS011;67012;53.712;10.728;2023-07-24T10:40:03;6.13;;;5.53;;
77821;SDS011;67012;53.712;10.728;2023-07-24T10:42:29;6.47;;;5.30;;
77821;SDS011;67012;53.712;10.728;2023-07-24T10:45:08;6.85;;;5.65;;
77821;SDS011;67012;53.712;10.728;2023-07-24T10:47:35;6.70;;;5.60;;
77821;SDS011;67012;53.712;10.728;2023-07-24T10:50:02;7.55;;;6.40;;
77821;SDS011;67012;53.712;10.728;2023-07-24T10:52:29;6.55;;;5.85;;
77821;SDS011;67012;53.712;10.728;2023-07-24T10:54:55;8.20;;;6.65;;
77821;SDS011;67012;53.712;10.728;2023-07-24T10:57:25;7.30;;;6.60;;
77821;SDS011;67012;53.712;10.728;2023-07-24T10:59:50;6.65;;;5.75;;
77821;SDS011;67012;53.712;10.728;2023-07-24T11:02:16;7.03;;;5.72;;
77821;SDS011;67012;53.712;10.728;2023-07-24T11:04:42;6.90;;;6.05;;
77821;SDS011;67012;53.712;10.728;2023-07-24T11:07:08;5.85;;;5.35;;
77821;SDS011;67012;53.712;10.728;2023-07-24T11:09:35;6.05;;;5.40;;
77821;SDS011;67012;53.712;10.728;2023-07-24T11:12:11;7.60;;;5.90;;
77821;SDS011;67012;53.712;10.728;2023-07-24T11:14:49;7.32;;;6.57;;
77821;SDS011;67012;53.712;10.728;2023-07-24T11:17:18;7.25;;;6.55;;
77821;SDS011;67012;53.712;10.728;2023-07-24T11:19:44;6.82;;;6.13;;
77821;SDS011;67012;53.712;10.728;2023-07-24T11:22:10;7.25;;;6.55;;
77821;SDS011;67012;53.712;10.728;2023-07-24T11:24:42;8.18;;;6.35;;
77821;SDS011;67012;53.712;10.728;2023-07-24T11:27:10;7.03;;;6.32;;
77821;SDS011;67012;53.712;10.728;2023-07-24T11:29:37;6.88;;;6.18;;
77821;SDS011;67012;53.712;10.728;2023-07-24T11:32:03;8.57;;;7.03;;
77821;SDS011;67012;53.712;10.728;2023-07-24T11:34:29;7.65;;;6.88;;
77821;SDS011;67012;53.712;10.728;2023-07-24T11:36:55;7.57;;;6.20;;
77821;SDS011;67012;53.712;10.728;2023-07-24T11:39:24;8.77;;;7.47;;
77821;SDS011;67012;53.712;10.728;2023-07-24T11:41:50;7.53;;;6.82;;
77821;SDS011;67012;53.712;10.728;2023-07-24T11:44:23;7.88;;;6.80;;
77821;SDS011;67012;53.712;10.728;2023-07-24T11:46:49;7.95;;;7.05;;
77821;SDS011;67012;53.712;10.728;2023-07-24T11:49:15;8.50;;;7.50;;
77821;SDS011;67012;53.712;10.728;2023-07-24T11:51:40;8.15;;;7.10;;
77821;SDS011;67012;53.712;10.728;2023-07-24T11:54:11;8.33;;;6.60;;
77821;SDS011;67012;53.712;10.728;2023-07-24T11:56:36;7.53;;;6.82;;
77821;SDS011;67012;53.712;10.728;2023-07-24T11:59:12;7.78;;;6.97;;
77821;SDS011;67012;53.712;10.728;2023-07-24T12:01:37;6.68;;;5.97;;
77821;SDS011;67012;53.712;10.728;2023-07-24T12:04:03;6.72;;;6.13;;
77821;SDS011;67012;53.712;10.728;2023-07-24T12:06:30;7.03;;;6.33;;
77821;SDS011;67012;53.712;10.728;2023-07-24T12:09:00;7.55;;;6.38;;
77821;SDS011;67012;53.712;10.728;2023-07-24T12:11:26;6.95;;;6.25;;
77821;SDS011;67012;53.712;10.728;2023-07-24T12:13:51;7.60;;;6.90;;
77821;SDS011;67012;53.712;10.728;2023-07-24T12:16:18;6.75;;;6.05;;
77821;SDS011;67012;53.712;10.728;2023-07-24T12:18:43;7.32;;;6.63;;
77821;SDS011;67012;53.712;10.728;2023-07-24T12:21:09;6.83;;;6.23;;
77821;SDS011;67012;53.712;10.728;2023-07-24T12:23:34;7.07;;;6.37;;
77821;SDS011;67012;53.712;10.728;2023-07-24T12:25:59;6.90;;;6.30;;
77821;SDS011;67012;53.712;10.728;2023-07-24T12:28:24;6.70;;;6.10;;
77821;SDS011;67012;53.712;10.728;2023-07-24T12:30:49;6.17;;;5.57;;
77821;SDS011;67012;53.712;10.728;2023-07-24T12:33:15;7.00;;;6.30;;
77821;SDS011;67012;53.712;10.728;2023-07-24T12:35:40;6.87;;;6.20;;
77821;SDS011;67012;53.712;10.728;2023-07-24T12:38:05;7.20;;;6.50;;
77821;SDS011;67012;53.712;10.728;2023-07-24T12:40:30;6.87;;;6.27;;
77821;SDS011;67012;53.712;10.728;2023-07-24T12:42:55;6.50;;;5.93;;
77821;SDS011;67012;53.712;10.728;2023-07-24T12:45:21;7.47;;;6.40;;
77821;SDS011;67012;53.712;10.728;2023-07-24T12:47:46;7.07;;;6.17;;
77821;SDS011;67012;53.712;10.728;2023-07-24T12:50:11;7.10;;;6.40;;
77821;SDS011;67012;53.712;10.728;2023-07-24T12:52:36;6.97;;;6.37;;
77821;SDS011;67012;53.712;10.728;2023-07-24T12:55:01;6.57;;;5.97;;
77821;SDS011;67012;53.712;10.728;2023-07-24T12:57:27;6.38;;;5.88;;
77821;SDS011;67012;53.712;10.728;2023-07-24T12:59:52;5.93;;;5.43;;
77821;SDS011;67012;53.712;10.728;2023-07-24T13:02:18;6.60;;;6.00;;
77821;SDS011;67012;53.712;10.728;2023-07-24T13:04:43;5.17;;;4.77;;
77821;SDS011;67012;53.712;10.728;2023-07-24T13:07:08;5.93;;;5.43;;
77821;SDS011;67012;53.712;10.728;2023-07-24T13:09:33;8.13;;;5.30;;
77821;SDS011;67012;53.712;10.728;2023-07-24T13:11:59;5.93;;;5.43;;
77821;SDS011;67012;53.712;10.728;2023-07-24T13:14:24;5.77;;;5.17;;
77821;SDS011;67012;53.712;10.728;2023-07-24T13:16:49;5.30;;;4.90;;
77821;SDS011;67012;53.712;10.728;2023-07-24T13:19:15;6.13;;;4.93;;
77821;SDS011;67012;53.712;10.728;2023-07-24T13:21:40;4.90;;;4.50;;
77821;SDS011;67012;53.712;10.728;2023-07-24T13:24:06;5.60;;;5.10;;
77821;SDS011;67012;53.712;10.728;2023-07-24T13:26:31;5.30;;;4.80;;
77821;SDS011;67012;53.712;10.728;2023-07-24T13:28:57;5.60;;;5.10;;
77821;SDS011;67012;53.712;10.728;2023-07-24T13:31:22;4.93;;;4.43;;
77821;SDS011;67012;53.712;10.728;2023-07-24T13:33:47;4.70;;;4.30;;
77821;SDS011;67012;53.712;10.728;2023-07-24T13:36:13;5.07;;;4.67;;
77821;SDS011;67012;53.712;10.728;2023-07-24T13:38:39;5.23;;;4.77;;
77821;SDS011;67012;53.712;10.728;2023-07-24T13:41:05;5.03;;;4.55;;
77821;SDS011;67012;53.712;10.728;2023-07-24T13:43:31;5.33;;;4.83;;
77821;SDS011;67012;53.712;10.728;2023-07-24T13:45:56;5.53;;;5.03;;
77821;SDS011;67012;53.712;10.728;2023-07-24T13:48:21;4.40;;;4.00;;
77821;SDS011;67012;53.712;10.728;2023-07-24T13:50:47;4.93;;;4.53;;
77821;SDS011;67012;53.712;10.728;2023-07-24T13:53:12;5.32;;;4.32;;
77821;SDS011;67012;53.712;10.728;2023-07-24T13:55:37;4.80;;;4.37;;
77821;SDS011;67012;53.712;10.728;2023-07-24T13:58:02;4.80;;;4.40;;
77821;SDS011;67012;53.712;10.728;2023-07-24T14:00:28;5.43;;;4.27;;
77821;SDS011;67012;53.712;10.728;2023-07-24T14:02:53;4.37;;;3.97;;
77821;SDS011;67012;53.712;10.728;2023-07-24T14:05:18;4.67;;;4.27;;
77821;SDS011;67012;53.712;10.728;2023-07-24T14:07:43;4.85;;;4.45;;
77821;SDS011;67012;53.712;10.728;2023-07-24T14:10:09;5.40;;;4.90;;
77821;SDS011;67012;53.712;10.728;2023-07-24T14:12:35;4.10;;;3.67;;
77821;SDS011;67012;53.712;10.728;2023-07-24T14:15:00;4.20;;;3.80;;
77821;SDS011;67012;53.712;10.728;2023-07-24T14:17:26;4.80;;;4.37;;
77821;SDS011;67012;53.712;10.728;2023-07-24T14:19:51;3.95;;;3.65;;
77821;SDS011;67012;53.712;10.728;2023-07-24T14:22:16;4.17;;;3.80;;
77821;SDS011;67012;53.712;10.728;2023-07-24T14:24:42;4.17;;;3.87;;
77821;SDS011;67012;53.712;10.728;2023-07-24T14:27:08;4.40;;;4.00;;
77821;SDS011;67012;53.712;10.728;2023-07-24T14:29:34;4.10;;;3.80;;
77821;SDS011;67012;53.712;10.728;2023-07-24T14:32:02;4.90;;;4.50;;
77821;SDS011;67012;53.712;10.728;2023-07-24T14:34:28;4.63;;;3.97;;
77821;SDS011;67012;53.712;10.728;2023-07-24T14:36:54;4.07;;;3.75;;
77821;SDS011;67012;53.712;10.728;2023-07-24T14:39:20;4.47;;;4.18;;
77821;SDS011;67012;53.712;10.728;2023-07-24T14:41:46;3.92;;;3.63;;
77821;SDS011;67012;53.712;10.728;2023-07-24T14:44:12;3.78;;;3.45;;
77821;SDS011;67012;53.712;10.728;2023-07-24T14:46:38;4.35;;;3.65;;
77821;SDS011;67012;53.712;10.728;2023-07-24T14:49:04;4.25;;;3.88;;
77821;SDS011;67012;53.712;10.728;2023-07-24T14:51:30;4.55;;;3.08;;
77821;SDS011;67012;53.712;10.728;2023-07-24T14:53:56;4.38;;;4.00;;
77821;SDS011;67012;53.712;10.728;2023-07-24T14:56:22;3.90;;;3.60;;
77821;SDS011;67012;53.712;10.728;2023-07-24T14:58:48;4.03;;;3.72;;
77821;SDS011;67012;53.712;10.728;2023-07-24T15:01:13;4.55;;;3.55;;
77821;SDS011;67012;53.712;10.728;2023-07-24T15:03:40;3.63;;;3.33;;
77821;SDS011;67012;53.712;10.728;2023-07-24T15:06:06;4.10;;;3.67;;
77821;SDS011;67012;53.712;10.728;2023-07-24T15:08:33;4.72;;;3.15;;
77821;SDS011;67012;53.712;10.728;2023-07-24T15:10:59;3.70;;;3.40;;
77821;SDS011;67012;53.712;10.728;2023-07-24T15:13:25;3.47;;;3.17;;
77821;SDS011;67012;53.712;10.728;2023-07-24T15:15:51;3.25;;;2.97;;
77821;SDS011;67012;53.712;10.728;2023-07-24T15:18:17;3.80;;;3.30;;
77821;SDS011;67012;53.712;10.728;2023-07-24T15:20:43;2.95;;;2.60;;
77821;SDS011;67012;53.712;10.728;2023-07-24T15:23:09;3.63;;;3.33;;
77821;SDS011;67012;53.712;10.728;2023-07-24T15:25:38;3.88;;;3.08;;
77821;SDS011;67012;53.712;10.728;2023-07-24T15:28:03;3.70;;;3.40;;
77821;SDS011;67012;53.712;10.728;2023-07-24T15:30:29;3.38;;;3.08;;
77821;SDS011;67012;53.712;10.728;2023-07-24T15:32:55;3.53;;;3.22;;
77821;SDS011;67012;53.712;10.728;2023-07-24T15:35:20;3.05;;;2.85;;
77821;SDS011;67012;53.712;10.728;2023-07-24T15:37:46;3.20;;;2.85;;
77821;SDS011;67012;53.712;10.728;2023-07-24T15:40:13;3.40;;;3.10;;
77821;SDS011;67012;53.712;10.728;2023-07-24T15:42:40;3.50;;;3.22;;
77821;SDS011;67012;53.712;10.728;2023-07-24T15:45:06;3.47;;;3.17;;
77821;SDS011;67012;53.712;10.728;2023-07-24T15:47:35;2.97;;;2.75;;
77821;SDS011;67012;53.712;10.728;2023-07-24T15:50:01;3.33;;;3.03;;
77821;SDS011;67012;53.712;10.728;2023-07-24T15:52:29;3.47;;;3.17;;
77821;SDS011;67012;53.712;10.728;2023-07-24T15:54:55;2.85;;;2.65;;
77821;SDS011;67012;53.712;10.728;2023-07-24T15:57:21;3.08;;;2.85;;
77821;SDS011;67012;53.712;10.728;2023-07-24T15:59:50;3.70;;;2.80;;
77821;SDS011;67012;53.712;10.728;2023-07-24T16:02:16;2.85;;;2.65;;
77821;SDS011;67012;53.712;10.728;2023-07-24T16:04:42;3.63;;;3.33;;
77821;SDS011;67012;53.712;10.728;2023-07-24T16:07:09;5.60;;;3.20;;
77821;SDS011;67012;53.712;10.728;2023-07-24T16:09:36;3.45;;;3.15;;
77821;SDS011;67012;53.712;10.728;2023-07-24T16:12:02;3.75;;;3.45;;
77821;SDS011;67012;53.712;10.728;2023-07-24T16:14:28;3.97;;;3.67;;
77821;SDS011;67012;53.712;10.728;2023-07-24T16:16:54;4.38;;;3.97;;
77821;SDS011;67012;53.712;10.728;2023-07-24T16:19:22;4.35;;;1.70;;
77821;SDS011;67012;53.712;10.728;2023-07-24T16:21:49;2.75;;;1.17;;
77821;SDS011;67012;53.712;10.728;2023-07-24T16:24:15;5.13;;;0.93;;
77821;SDS011;67012;53.712;10.728;2023-07-24T16:26:47;3.17;;;1.40;;
77821;SDS011;67012;53.712;10.728;2023-07-24T16:29:13;4.13;;;1.20;;
77821;SDS011;67012;53.712;10.728;2023-07-24T16:31:39;1.90;;;1.00;;
77821;SDS011;67012;53.712;10.728;2023-07-24T16:34:05;1.15;;;1.02;;
77821;SDS011;67012;53.712;10.728;2023-07-24T16:36:31;2.47;;;0.90;;
77821;SDS011;67012;53.712;10.728;2023-07-24T16:38:59;1.90;;;0.85;;
77821;SDS011;67012;53.712;10.728;2023-07-24T16:41:26;4.00;;;1.20;;
77821;SDS011;67012;53.712;10.728;2023-07-24T16:43:55;2.15;;;1.38;;
77821;SDS011;67012;53.712;10.728;2023-07-24T16:46:21;2.65;;;1.35;;
77821;SDS011;67012;53.712;10.728;2023-07-24T16:48:49;2.45;;;1.15;;
77821;SDS011;67012;53.712;10.728;2023-07-24T16:51:17;2.08;;;1.40;;
77821;SDS011;67012;53.712;10.728;2023-07-24T16:53:44;1.80;;;1.52;;
77821;SDS011;67012;53.712;10.728;2023-07-24T16:56:09;2.40;;;1.92;;
77821;SDS011;67012;53.712;10.728;2023-07-24T16:58:36;2.83;;;1.90;;
77821;SDS011;67012;53.712;10.728;2023-07-24T17:01:01;5.70;;;2.63;;
77821;SDS011;67012;53.712;10.728;2023-07-24T17:03:27;4.05;;;3.00;;
77821;SDS011;67012;53.712;10.728;2023-07-24T17:05:53;4.05;;;2.17;;
77821;SDS011;67012;53.712;10.728;2023-07-24T17:08:22;3.20;;;2.40;;
77821;SDS011;67012;53.712;10.728;2023-07-24T17:10:49;2.30;;;1.90;;
77821;SDS011;67012;53.712;10.728;2023-07-24T17:13:15;2.97;;;2.10;;
77821;SDS011;67012;53.712;10.728;2023-07-24T17:15:41;3.72;;;2.25;;
77821;SDS011;67012;53.712;10.728;2023-07-24T17:18:08;3.78;;;2.05;;
77821;SDS011;67012;53.712;10.728;2023-07-24T17:20:33;4.80;;;3.03;;
77821;SDS011;67012;53.712;10.728;2023-07-24T17:22:59;3.03;;;2.42;;
77821;SDS011;67012;53.712;10.728;2023-07-24T17:25:25;4.63;;;2.90;;
